createdAt,value
2023-03-30T00:02:10.463Z,100082.97
2023-03-30T00:05:13.847Z,100069.97
2023-03-30T00:08:18.109Z,100053.91
2023-03-30T00:11:23.001Z,100043.31
2023-03-30T00:14:29.517Z,100051.88
2023-03-30T00:17:31.100Z,100054.59
2023-03-30T00:20:32.606Z,100042.44
2023-03-30T00:23:34.117Z,100045.66
2023-03-30T00:26:35.903Z,100040.75
2023-03-30T00:29:37.297Z,100041.16
2023-03-30T00:32:39.120Z,100019.13
2023-03-30T00:35:40.639Z,100009.69
2023-03-30T00:38:42.035Z,100013.50
2023-03-30T00:41:43.468Z,100019.56
2023-03-30T00:45:26.381Z,100017.88
2023-03-30T00:48:37.262Z,100009.78
2023-03-30T00:51:42.401Z,100008.34
2023-03-30T00:54:43.905Z,100015.66
2023-03-30T00:57:46.841Z,100018.34
2023-03-30T01:00:48.604Z,100020.38
2023-03-30T01:03:51.945Z,100022.16
2023-03-30T01:06:55.107Z,100028.25
2023-03-30T01:09:57.239Z,100023.81
2023-03-30T01:12:59.888Z,100016.81
2023-03-30T01:16:06.550Z,100003.81
2023-03-30T01:19:45.872Z,100003.94
2023-03-30T01:23:13.382Z,100004.19
2023-03-30T01:26:43.094Z,100008.94
2023-03-30T01:30:08.160Z,100010.94
2023-03-30T01:33:41.705Z,100004.72
2023-03-30T01:36:48.937Z,100021.53
2023-03-30T01:40:05.587Z,100013.38
2023-03-30T01:43:32.993Z,100012.53
2023-03-30T01:46:41.093Z,100021.41
2023-03-30T01:49:54.899Z,100029.41
2023-03-30T01:53:25.577Z,100035.41
2023-03-30T01:56:32.344Z,100032.00
2023-03-30T01:59:39.964Z,100027.69
2023-03-30T02:02:46.268Z,100019.81
2023-03-30T02:05:52.811Z,100030.25
2023-03-30T02:08:59.164Z,100030.97
2023-03-30T02:12:03.086Z,100025.66
2023-03-30T02:15:09.089Z,100019.69
2023-03-30T02:18:10.832Z,100028.53
2023-03-30T02:21:12.977Z,100027.69
2023-03-30T02:24:19.198Z,100004.81
2023-03-30T02:27:23.411Z,99996.16
2023-03-30T02:30:24.827Z,99996.41
2023-03-30T02:33:47.635Z,100012.56
2023-03-30T02:37:09.925Z,100025.88
2023-03-30T02:40:35.717Z,100028.03
2023-03-30T02:43:49.741Z,100015.03
2023-03-30T02:47:02.530Z,100016.03
2023-03-30T02:50:21.113Z,100012.31
2023-03-30T02:53:28.725Z,100004.44
2023-03-30T02:56:45.123Z,99993.88
2023-03-30T03:00:12.625Z,100002.66
2023-03-30T03:03:19.845Z,99981.50
2023-03-30T03:06:23.702Z,99995.44
2023-03-30T03:09:28.989Z,100007.66
2023-03-30T03:12:31.708Z,99992.88
2023-03-30T03:15:33.112Z,99978.72
2023-03-30T03:18:45.988Z,99977.69
2023-03-30T03:21:47.468Z,99983.72
2023-03-30T03:24:49.371Z,99996.06
2023-03-30T03:28:17.353Z,99981.94
2023-03-30T03:31:26.991Z,99990.69
2023-03-30T03:34:31.508Z,99998.31
2023-03-30T03:37:37.156Z,99994.69
2023-03-30T03:40:38.991Z,99983.94
2023-03-30T03:43:40.589Z,99966.28
2023-03-30T03:46:42.095Z,99961.72
2023-03-30T03:49:43.804Z,99957.09
2023-03-30T03:52:45.314Z,99955.25
2023-03-30T03:55:47.010Z,99951.75
2023-03-30T03:58:48.408Z,99942.94
2023-03-30T04:01:50.015Z,99932.31
2023-03-30T04:04:52.295Z,99908.56
2023-03-30T04:07:53.723Z,99912.81
2023-03-30T04:10:55.555Z,99901.41
2023-03-30T04:14:10.841Z,99894.41
2023-03-30T04:17:36.817Z,99885.53
2023-03-30T04:20:59.434Z,99861.41
2023-03-30T04:24:29.614Z,99867.16
2023-03-30T04:27:51.124Z,99862.69
2023-03-30T04:31:10.504Z,99860.13
2023-03-30T04:34:30.846Z,99872.41
2023-03-30T04:38:02.394Z,99870.81
2023-03-30T04:41:35.803Z,99893.66
2023-03-30T04:45:06.033Z,99892.91
2023-03-30T04:48:33.295Z,99896.56
2023-03-30T04:51:56.061Z,99892.13
2023-03-30T04:55:23.937Z,99885.84
2023-03-30T04:58:44.930Z,99879.44
2023-03-30T05:01:59.742Z,99865.66
2023-03-30T05:05:09.242Z,99859.84
2023-03-30T05:08:23.535Z,99858.44
2023-03-30T05:11:44.884Z,99870.06
2023-03-30T05:15:05.092Z,99863.19
2023-03-30T05:18:26.767Z,99871.34
2023-03-30T05:21:28.178Z,99873.38
2023-03-30T05:24:48.215Z,99881.19
2023-03-30T05:27:58.000Z,99879.78
2023-03-30T05:31:13.645Z,99888.50
2023-03-30T05:34:30.365Z,99893.63
2023-03-30T05:37:38.979Z,99906.03
2023-03-30T05:41:01.248Z,99923.56
2023-03-30T05:44:23.262Z,99950.34
2023-03-30T05:47:47.690Z,99995.53
2023-03-30T05:51:04.382Z,100035.69
2023-03-30T05:54:22.839Z,100040.59
2023-03-30T05:57:42.891Z,100046.22
2023-03-30T06:01:05.898Z,100047.47
2023-03-30T06:04:13.207Z,100046.06
2023-03-30T06:07:17.937Z,100028.19
2023-03-30T06:10:19.741Z,100035.53
2023-03-30T06:13:22.922Z,100042.88
2023-03-30T06:16:26.571Z,100072.03
2023-03-30T06:19:28.031Z,100073.75
2023-03-30T06:22:31.428Z,100072.03
2023-03-30T06:25:38.708Z,100075.31
2023-03-30T06:28:41.179Z,100067.38
2023-03-30T06:31:42.910Z,100064.81
2023-03-30T06:35:03.909Z,100099.78
2023-03-30T06:38:05.852Z,100083.28
2023-03-30T06:41:09.868Z,100077.50
2023-03-30T06:44:14.808Z,100072.03
2023-03-30T06:47:16.501Z,100051.44
2023-03-30T06:50:18.108Z,100052.44
2023-03-30T06:53:32.390Z,100055.00
2023-03-30T06:56:33.847Z,100051.66
2023-03-30T06:59:47.523Z,100048.00
2023-03-30T07:02:55.045Z,100033.84
2023-03-30T07:06:02.611Z,99995.69
2023-03-30T07:09:13.026Z,100011.38
2023-03-30T07:12:15.303Z,100016.66
2023-03-30T07:15:17.248Z,100016.53
2023-03-30T07:18:19.296Z,100023.63
2023-03-30T07:21:20.990Z,100041.47
2023-03-30T07:24:22.538Z,100049.59
2023-03-30T07:27:25.438Z,100078.19
2023-03-30T07:30:31.387Z,100095.78
2023-03-30T07:33:38.497Z,100104.94
2023-03-30T07:36:41.700Z,100101.38
2023-03-30T07:39:43.106Z,100087.34
2023-03-30T07:42:45.270Z,100083.06
2023-03-30T07:45:47.294Z,100053.44
2023-03-30T07:48:56.422Z,100060.28
2023-03-30T07:51:59.152Z,100064.88
2023-03-30T07:55:08.946Z,100062.31
2023-03-30T07:58:22.855Z,100060.47
2023-03-30T08:01:24.307Z,100027.22
2023-03-30T08:04:46.646Z,100019.81
2023-03-30T08:07:51.911Z,100022.56
2023-03-30T08:10:59.144Z,100032.97
2023-03-30T08:14:00.621Z,100031.06
2023-03-30T08:17:02.005Z,100030.19
2023-03-30T08:20:08.671Z,100043.84
2023-03-30T08:23:11.249Z,100048.69
2023-03-30T08:26:12.707Z,100045.59
2023-03-30T08:29:14.504Z,100032.81
2023-03-30T08:32:16.157Z,100041.06
2023-03-30T08:35:18.014Z,100043.56
2023-03-30T08:38:19.449Z,100052.91
2023-03-30T08:41:29.915Z,100044.97
2023-03-30T08:44:40.662Z,100023.59
2023-03-30T08:47:47.914Z,100030.31
2023-03-30T08:50:58.609Z,100032.16
2023-03-30T08:54:05.331Z,100044.84
2023-03-30T08:57:24.845Z,100076.00
2023-03-30T09:00:32.577Z,100093.84
2023-03-30T09:03:45.240Z,100098.97
2023-03-30T09:06:52.751Z,100114.44
2023-03-30T09:09:57.004Z,100123.25
2023-03-30T09:13:02.145Z,100114.44
2023-03-30T09:16:28.083Z,100094.16
2023-03-30T09:19:42.191Z,100076.41
2023-03-30T09:22:45.498Z,100072.19
2023-03-30T09:26:01.126Z,100066.63
2023-03-30T09:29:16.634Z,100035.88
2023-03-30T09:32:31.056Z,100049.78
2023-03-30T09:35:40.544Z,100063.75
2023-03-30T09:38:43.072Z,100059.16
2023-03-30T09:42:18.593Z,100043.00
2023-03-30T09:45:21.921Z,100043.44
2023-03-30T09:48:23.767Z,100023.78
2023-03-30T09:51:30.706Z,100039.94
2023-03-30T09:54:41.261Z,100039.88
2023-03-30T09:57:42.711Z,100041.41
2023-03-30T10:00:44.959Z,100052.22
2023-03-30T10:04:07.054Z,100033.56
2023-03-30T10:07:22.238Z,100058.13
2023-03-30T10:10:29.115Z,100055.22
2023-03-30T10:13:33.561Z,100054.44
2023-03-30T10:16:35.408Z,100050.72
2023-03-30T10:19:45.948Z,100051.03
2023-03-30T10:22:55.859Z,100051.38
2023-03-30T10:26:03.729Z,100053.09
2023-03-30T10:29:07.925Z,100040.34
2023-03-30T10:32:19.209Z,100045.22
2023-03-30T10:35:26.274Z,100055.31
2023-03-30T10:38:33.100Z,100055.91
2023-03-30T10:41:37.556Z,100042.59
2023-03-30T10:44:47.883Z,100053.78
2023-03-30T10:48:14.298Z,100041.84
2023-03-30T10:51:32.512Z,100046.31
2023-03-30T10:54:40.593Z,100035.94
2023-03-30T10:58:14.094Z,100042.91
2023-03-30T11:01:34.819Z,100055.25
2023-03-30T11:04:46.968Z,100054.69
2023-03-30T11:08:01.193Z,100054.41
2023-03-30T11:11:03.157Z,100047.31
2023-03-30T11:14:14.431Z,100048.16
2023-03-30T11:17:44.318Z,100048.06
2023-03-30T11:20:53.274Z,100044.53
2023-03-30T11:23:57.365Z,100051.72
2023-03-30T11:27:22.266Z,100059.28
2023-03-30T11:30:31.424Z,100049.72
2023-03-30T11:33:38.871Z,100062.75
2023-03-30T11:36:49.522Z,100058.97
2023-03-30T11:40:13.250Z,100067.78
2023-03-30T11:43:20.331Z,100059.56
2023-03-30T11:46:27.797Z,100062.66
2023-03-30T11:49:29.311Z,100061.06
2023-03-30T11:52:43.582Z,100077.09
2023-03-30T11:56:05.522Z,100063.72
2023-03-30T11:59:33.159Z,100048.94
2023-03-30T12:03:19.496Z,100046.47
2023-03-30T12:06:31.514Z,100040.59
2023-03-30T12:09:41.340Z,100027.97
2023-03-30T12:12:44.127Z,100029.63
2023-03-30T12:15:55.383Z,100028.50
2023-03-30T12:19:24.671Z,100019.19
2023-03-30T12:22:58.460Z,100033.69
2023-03-30T12:26:02.979Z,100017.31
2023-03-30T12:29:44.505Z,100008.69
2023-03-30T12:32:29.924Z,100004.88
2023-03-30T12:35:49.847Z,99992.28
2023-03-30T12:38:53.733Z,99992.91
2023-03-30T12:42:07.726Z,99992.06
2023-03-30T12:45:15.036Z,99998.25
2023-03-30T12:48:38.741Z,99990.09
2023-03-30T12:51:55.521Z,100003.47
2023-03-30T12:55:28.838Z,99988.25
2023-03-30T12:58:57.255Z,99989.88
2023-03-30T13:02:26.778Z,99990.22
2023-03-30T13:05:38.621Z,99984.28
2023-03-30T13:08:42.058Z,99998.72
2023-03-30T13:12:20.224Z,99985.75
2023-03-30T13:15:57.864Z,99981.63
2023-03-30T13:19:13.815Z,99975.88
2023-03-30T13:22:15.611Z,99981.25
2023-03-30T13:25:19.980Z,99965.03
2023-03-30T13:28:54.898Z,99971.25
2023-03-30T13:32:07.441Z,99968.91
2023-03-30T13:35:18.034Z,99965.06
2023-03-30T13:38:39.987Z,99961.63
2023-03-30T13:41:54.622Z,99962.03
2023-03-30T13:45:28.516Z,99967.16
2023-03-30T13:48:54.912Z,99959.78
2023-03-30T13:52:11.977Z,99956.00
2023-03-30T13:55:22.429Z,99952.13
2023-03-30T13:58:33.745Z,99952.13
2023-03-30T14:01:39.590Z,99938.03
2023-03-30T14:04:41.211Z,99944.81
2023-03-30T14:07:46.597Z,99939.97
2023-03-30T14:10:51.159Z,99958.59
2023-03-30T14:13:53.654Z,99943.34
2023-03-30T14:16:57.436Z,99943.59
2023-03-30T14:20:18.135Z,99954.22
2023-03-30T14:23:48.638Z,99954.78
2023-03-30T14:26:50.288Z,99943.63
2023-03-30T14:29:52.747Z,99946.31
2023-03-30T14:33:06.814Z,99940.81
2023-03-30T14:36:11.929Z,99947.16
2023-03-30T14:39:14.697Z,99957.22
2023-03-30T14:42:21.270Z,99975.94
2023-03-30T14:45:22.723Z,99974.44
2023-03-30T14:48:29.873Z,99969.09
2023-03-30T14:51:39.395Z,99972.31
2023-03-30T14:54:51.379Z,99973.59
2023-03-30T14:57:59.417Z,99978.63
2023-03-30T15:01:09.170Z,99997.28
2023-03-30T15:04:15.093Z,99993.69
2023-03-30T15:07:17.590Z,99997.50
2023-03-30T15:10:33.351Z,99972.63
2023-03-30T15:13:46.806Z,99992.50
2023-03-30T15:16:53.381Z,99997.34
2023-03-30T15:19:57.962Z,100008.50
2023-03-30T15:23:00.180Z,100002.50
2023-03-30T15:26:04.940Z,100003.84
2023-03-30T15:29:06.516Z,100010.94
2023-03-30T15:32:15.403Z,100006.19
2023-03-30T15:35:43.147Z,100006.78
2023-03-30T15:38:53.885Z,100007.78
2023-03-30T15:42:01.356Z,100006.13
2023-03-30T15:45:13.920Z,100007.56
2023-03-30T15:48:40.815Z,100006.19
2023-03-30T15:51:47.378Z,99998.56
2023-03-30T15:54:55.156Z,100004.25
2023-03-30T15:57:56.754Z,100004.25
2023-03-30T16:00:58.292Z,99993.63
2023-03-30T16:04:00.910Z,100003.19
2023-03-30T16:07:08.080Z,99987.75
2023-03-30T16:10:20.603Z,99995.81
2023-03-30T16:13:22.682Z,99990.50
2023-03-30T16:16:24.678Z,99998.88
2023-03-30T16:19:26.349Z,99991.19
2023-03-30T16:22:27.776Z,99993.47
2023-03-30T16:28:33.455Z,99987.97
2023-03-30T16:31:35.350Z,99989.59
2023-03-30T16:34:36.927Z,99988.63
2023-03-30T16:37:38.688Z,99981.81
2023-03-30T16:40:43.273Z,99987.53
2023-03-30T16:43:44.799Z,99985.81
2023-03-30T16:46:47.498Z,99989.00
2023-03-30T16:49:48.924Z,99994.56
2023-03-30T16:52:51.039Z,99994.28
2023-03-30T16:55:52.493Z,99998.22
2023-03-30T16:58:53.884Z,100000.28
2023-03-30T17:01:55.247Z,99997.50
2023-03-30T17:04:56.668Z,100001.78
2023-03-30T17:08:06.969Z,99994.75
2023-03-30T17:11:10.772Z,99997.03
2023-03-30T17:14:12.899Z,99997.50
2023-03-30T17:17:14.284Z,100004.03
2023-03-30T17:20:36.849Z,100005.34
2023-03-30T17:23:38.247Z,100005.78
2023-03-30T17:26:39.938Z,100016.00
2023-03-30T17:29:41.367Z,100009.59
2023-03-30T17:32:43.450Z,100018.50
2023-03-30T17:35:49.498Z,100022.31
2023-03-30T17:38:51.777Z,100018.94
2023-03-30T17:41:53.592Z,100017.53
2023-03-30T17:44:54.992Z,100016.69
2023-03-30T17:47:57.042Z,100019.72
2023-03-30T17:50:58.498Z,100019.56
2023-03-30T17:53:59.904Z,100020.88
2023-03-30T17:57:01.337Z,100029.63
2023-03-30T18:00:11.304Z,100021.94
2023-03-30T18:03:17.100Z,100024.69
2023-03-30T18:06:18.716Z,100026.78
2023-03-30T18:09:20.101Z,100030.75
2023-03-30T18:12:21.584Z,100038.81
2023-03-30T18:15:27.661Z,100035.94
2023-03-30T18:18:30.439Z,100035.47
2023-03-30T18:21:31.977Z,100040.97
2023-03-30T18:24:33.355Z,100037.47
2023-03-30T18:27:34.846Z,100048.69
2023-03-30T18:30:37.645Z,100042.59
2023-03-30T18:33:39.441Z,100046.41
2023-03-30T18:36:42.077Z,100041.25
2023-03-30T18:39:45.598Z,100042.22
2023-03-30T18:42:47.250Z,100045.72
2023-03-30T18:45:50.367Z,100065.16
2023-03-30T18:48:51.869Z,100069.59
2023-03-30T18:51:53.382Z,100071.69
2023-03-30T18:54:54.848Z,100071.19
2023-03-30T18:57:57.821Z,100071.59
2023-03-30T19:00:59.920Z,100073.09
2023-03-30T19:04:01.314Z,100062.63
2023-03-30T19:07:02.673Z,100069.28
2023-03-30T19:10:04.436Z,100063.41
2023-03-30T19:13:05.887Z,100062.91
2023-03-30T19:16:09.038Z,100061.75
2023-03-30T19:19:14.915Z,100075.31
2023-03-30T19:22:17.034Z,100078.06
2023-03-30T19:25:19.809Z,100089.38
2023-03-30T19:28:21.501Z,100151.38
2023-03-30T19:31:23.034Z,100144.81
2023-03-30T19:34:24.851Z,100135.03
2023-03-30T19:37:26.245Z,100132.88
2023-03-30T19:40:27.962Z,100132.66
2023-03-30T19:43:30.209Z,100121.22
2023-03-30T19:46:31.716Z,100110.88
2023-03-30T19:49:33.186Z,100092.19
2023-03-30T19:52:34.666Z,100083.66
2023-03-30T19:55:37.040Z,100086.31
2023-03-30T19:58:38.792Z,100069.13
2023-03-30T20:01:40.270Z,100069.88
2023-03-30T20:04:42.347Z,100068.50
2023-03-30T20:07:45.319Z,100068.50
2023-03-30T20:10:49.121Z,100066.31
2023-03-30T20:13:51.626Z,100060.00
2023-03-30T20:16:53.017Z,100057.72
2023-03-30T20:19:54.451Z,100058.97
2023-03-30T20:22:56.464Z,100066.78
2023-03-30T20:26:02.771Z,100047.38
2023-03-30T20:29:04.215Z,100054.41
2023-03-30T20:32:05.775Z,100048.25
2023-03-30T20:35:07.835Z,100049.31
2023-03-30T20:38:09.556Z,100044.19
2023-03-30T20:41:11.673Z,100048.53
2023-03-30T20:44:13.153Z,100048.69
2023-03-30T20:47:17.450Z,100038.09
2023-03-30T20:50:18.827Z,100038.25
2023-03-30T20:53:20.216Z,100028.59
2023-03-30T20:56:21.800Z,100035.00
2023-03-30T20:59:23.265Z,100039.63
2023-03-30T21:02:24.760Z,100030.09
2023-03-30T21:05:26.311Z,100035.25
2023-03-30T21:08:27.841Z,100036.06
2023-03-30T21:11:31.678Z,100047.69
2023-03-30T21:14:33.038Z,100060.75
2023-03-30T21:17:34.510Z,100062.31
2023-03-30T21:20:36.397Z,100059.03
2023-03-30T21:23:40.009Z,100074.22
2023-03-30T21:26:41.569Z,100099.28
2023-03-30T21:29:42.960Z,100107.22
2023-03-30T21:32:44.372Z,100101.94
2023-03-30T21:35:50.912Z,100100.38
2023-03-30T21:38:52.302Z,100098.72
2023-03-30T21:41:53.766Z,100084.78
2023-03-30T21:44:55.240Z,100062.13
2023-03-30T21:47:56.758Z,100030.56
2023-03-30T21:51:00.370Z,100021.06
2023-03-30T21:54:01.778Z,100005.84
2023-03-30T21:57:03.240Z,100004.34
2023-03-30T22:00:09.891Z,99999.91
2023-03-30T22:03:14.983Z,100000.88
2023-03-30T22:06:17.351Z,99994.91
2023-03-30T22:09:18.763Z,99988.75
2023-03-30T22:12:20.442Z,99987.50
2023-03-30T22:15:21.900Z,99975.19
2023-03-30T22:18:23.500Z,99961.91
2023-03-30T22:21:28.991Z,99959.34
2023-03-30T22:24:30.409Z,99960.19
2023-03-30T22:27:32.678Z,99964.19
2023-03-30T22:30:34.913Z,99951.63
2023-03-30T22:33:36.311Z,99960.47
2023-03-30T22:36:37.694Z,99948.97
2023-03-30T22:39:39.249Z,99947.09
2023-03-30T22:42:40.754Z,99936.91
2023-03-30T22:45:43.151Z,99935.13
2023-03-30T22:48:45.102Z,99934.16
2023-03-30T22:51:52.471Z,99921.13
2023-03-30T22:54:54.463Z,99929.34
2023-03-30T22:57:56.938Z,99918.91
2023-03-30T23:01:02.219Z,99915.31
2023-03-30T23:04:05.570Z,99903.19
2023-03-30T23:07:08.032Z,99906.94
2023-03-30T23:10:11.679Z,99909.53
2023-03-30T23:13:13.870Z,99900.09
2023-03-30T23:16:15.391Z,99898.16
2023-03-30T23:19:16.790Z,99886.78
2023-03-30T23:22:18.157Z,99884.09
2023-03-30T23:25:20.812Z,99886.59
2023-03-30T23:28:22.277Z,99879.38
2023-03-30T23:31:26.590Z,99875.59
2023-03-30T23:34:28.328Z,99873.78
2023-03-30T23:37:30.277Z,99864.94
2023-03-30T23:40:31.737Z,99860.66
2023-03-30T23:43:33.186Z,99851.81
2023-03-30T23:46:34.747Z,99853.75
2023-03-30T23:49:36.294Z,99855.66
2023-03-30T23:52:37.675Z,99853.94
2023-03-30T23:55:41.106Z,99833.78
2023-03-30T23:58:42.929Z,99836.09
